createdAt,value
2023-01-13T00:00:38.427Z,72.85
2023-01-13T00:03:06.758Z,72.44
2023-01-13T00:05:35.379Z,72.02
2023-01-13T00:08:05.020Z,71.91
2023-01-13T00:10:34.984Z,72.58
2023-01-13T00:13:05.017Z,72.77
2023-01-13T00:15:33.711Z,73.05
2023-01-13T00:18:02.060Z,72.94
2023-01-13T00:20:30.379Z,70.96
2023-01-13T00:23:00.226Z,70.83
2023-01-13T00:25:28.436Z,69.79
2023-01-13T00:27:58.234Z,72.17
2023-01-13T00:30:26.450Z,71.42
2023-01-13T00:32:54.784Z,70.75
2023-01-13T00:35:23.168Z,70.52
2023-01-13T00:37:51.384Z,70.08
2023-01-13T00:40:19.864Z,69.83
2023-01-13T00:43:07.716Z,69.50
2023-01-13T00:45:37.389Z,69.65
2023-01-13T00:48:05.707Z,69.87
2023-01-13T00:50:34.312Z,71.00
2023-01-13T00:53:02.978Z,70.42
2023-01-13T00:55:32.604Z,71.24
2023-01-13T00:58:03.738Z,71.40
2023-01-13T01:00:32.457Z,72.71
2023-01-13T01:03:02.393Z,73.75
2023-01-13T01:05:30.612Z,75.13
2023-01-13T01:07:58.875Z,78.00
2023-01-13T01:10:27.401Z,79.87
2023-01-13T01:12:55.641Z,83.32
2023-01-13T01:15:43.531Z,87.64
2023-01-13T01:18:13.256Z,86.18
2023-01-13T01:20:41.497Z,89.63
2023-01-13T01:23:09.741Z,86.67
2023-01-13T01:25:38.086Z,85.05
2023-01-13T01:28:06.394Z,86.25
2023-01-13T01:30:34.708Z,85.11
2023-01-13T01:33:05.358Z,83.43
2023-01-13T01:35:34.978Z,80.67
2023-01-13T01:38:03.180Z,79.15
2023-01-13T01:40:31.502Z,77.92
2023-01-13T01:43:13.503Z,77.92
2023-01-13T01:45:41.793Z,77.08
2023-01-13T01:48:13.755Z,77.21
2023-01-13T01:50:43.506Z,77.69
2023-01-13T01:53:14.455Z,79.17
2023-01-13T01:55:43.688Z,79.19
2023-01-13T01:58:16.805Z,80.62
2023-01-13T02:00:45.359Z,79.98
2023-01-13T02:03:14.342Z,78.70
2023-01-13T02:05:44.073Z,78.73
2023-01-13T02:08:15.099Z,77.98
2023-01-13T02:10:47.026Z,78.17
2023-01-13T02:13:15.676Z,77.96
2023-01-13T02:15:52.372Z,78.04
2023-01-13T02:18:32.974Z,78.63
2023-01-13T02:21:30.478Z,79.07
2023-01-13T02:24:41.573Z,78.21
2023-01-13T02:27:54.941Z,78.61
2023-01-13T02:31:15.751Z,79.84
2023-01-13T02:33:55.065Z,81.61
2023-01-13T02:36:32.838Z,81.36
2023-01-13T02:39:09.749Z,81.54
2023-01-13T02:42:02.960Z,81.76
2023-01-13T02:44:37.380Z,81.16
2023-01-13T02:47:11.603Z,81.62
2023-01-13T02:49:43.832Z,81.57
2023-01-13T02:52:15.529Z,80.10
2023-01-13T02:54:48.081Z,80.29
2023-01-13T02:57:19.719Z,80.61
2023-01-13T02:59:49.330Z,80.48
2023-01-13T03:02:22.717Z,80.15
2023-01-13T03:04:54.404Z,79.95
2023-01-13T03:07:53.506Z,80.11
2023-01-13T03:10:35.911Z,80.50
2023-01-13T03:13:16.225Z,81.45
2023-01-13T03:15:55.296Z,81.94
2023-01-13T03:18:36.031Z,82.26
2023-01-13T03:21:11.132Z,81.65
2023-01-13T03:23:49.138Z,81.92
2023-01-13T03:26:24.169Z,81.14
2023-01-13T03:28:59.609Z,81.02
2023-01-13T03:31:32.815Z,80.25
2023-01-13T03:34:08.743Z,78.95
2023-01-13T03:36:40.904Z,77.45
2023-01-13T03:39:13.785Z,77.45
2023-01-13T03:41:48.439Z,77.05
2023-01-13T03:44:23.238Z,76.08
2023-01-13T03:47:00.755Z,77.23
2023-01-13T03:49:36.157Z,77.16
2023-01-13T03:52:09.266Z,77.83
2023-01-13T03:54:45.130Z,77.44
2023-01-13T03:57:17.061Z,77.19
2023-01-13T03:59:49.932Z,77.05
2023-01-13T04:02:25.849Z,76.43
2023-01-13T04:04:59.906Z,76.22
2023-01-13T04:07:38.863Z,76.31
2023-01-13T04:10:10.307Z,75.84
2023-01-13T04:13:05.347Z,75.93
2023-01-13T04:15:37.998Z,75.83
2023-01-13T04:18:15.576Z,75.55
2023-01-13T04:20:46.707Z,74.36
2023-01-13T04:23:15.250Z,74.33
2023-01-13T04:25:44.915Z,74.95
2023-01-13T04:28:13.735Z,73.78
2023-01-13T04:30:42.766Z,74.86
2023-01-13T04:33:12.260Z,74.31
2023-01-13T04:35:40.685Z,75.39
2023-01-13T04:38:12.819Z,76.44
2023-01-13T04:40:41.439Z,76.57
2023-01-13T04:43:10.219Z,75.62
2023-01-13T04:45:38.613Z,76.94
2023-01-13T04:48:07.440Z,77.11
2023-01-13T04:50:35.786Z,76.99
2023-01-13T04:53:04.172Z,77.52
2023-01-13T04:55:33.968Z,77.58
2023-01-13T04:58:05.881Z,76.30
2023-01-13T05:00:34.564Z,75.37
2023-01-13T05:03:03.374Z,75.31
2023-01-13T05:05:32.273Z,75.28
2023-01-13T05:08:00.678Z,74.57
2023-01-13T05:10:29.384Z,74.57
2023-01-13T05:13:16.448Z,75.26
2023-01-13T05:16:04.632Z,75.89
2023-01-13T05:18:34.190Z,75.75
2023-01-13T05:21:02.465Z,76.90
2023-01-13T05:23:47.989Z,77.21
2023-01-13T05:26:16.271Z,76.17
2023-01-13T05:28:45.986Z,76.23
2023-01-13T05:31:15.109Z,77.11
2023-01-13T05:33:43.422Z,77.35
2023-01-13T05:36:11.700Z,78.75
2023-01-13T05:38:40.069Z,78.20
2023-01-13T05:41:26.618Z,77.68
2023-01-13T05:43:56.379Z,78.14
2023-01-13T05:46:24.885Z,79.66
2023-01-13T05:48:53.197Z,78.05
2023-01-13T05:51:26.367Z,78.21
2023-01-13T05:53:57.524Z,77.82
2023-01-13T05:56:25.839Z,77.35
2023-01-13T05:58:55.454Z,75.54
2023-01-13T06:01:23.852Z,75.96
2023-01-13T06:03:52.244Z,75.51
2023-01-13T06:06:20.576Z,73.87
2023-01-13T06:08:48.902Z,73.79
2023-01-13T06:11:17.247Z,74.96
2023-01-13T06:13:45.586Z,74.23
2023-01-13T06:16:15.367Z,73.57
2023-01-13T06:18:43.657Z,74.83
2023-01-13T06:21:11.882Z,77.00
2023-01-13T06:23:40.123Z,77.56
2023-01-13T06:26:13.746Z,78.71
2023-01-13T06:28:42.050Z,80.53
2023-01-13T06:31:11.792Z,81.49
2023-01-13T06:33:45.943Z,80.47
2023-01-13T06:36:18.352Z,77.25
2023-01-13T06:38:51.320Z,74.83
2023-01-13T06:41:42.075Z,74.12
2023-01-13T06:44:09.405Z,73.52
2023-01-13T06:46:37.988Z,72.83
2023-01-13T06:49:07.970Z,69.75
2023-01-13T06:51:36.377Z,69.19
2023-01-13T06:54:05.020Z,68.39
2023-01-13T06:56:33.391Z,66.11
2023-01-13T06:59:01.575Z,64.33
2023-01-13T07:01:29.812Z,63.69
2023-01-13T07:03:58.356Z,61.10
2023-01-13T07:06:33.223Z,59.87
2023-01-13T07:09:01.657Z,58.85
2023-01-13T07:11:29.953Z,56.43
2023-01-13T07:14:15.510Z,55.94
2023-01-13T07:16:45.243Z,55.61
2023-01-13T07:19:13.593Z,54.46
2023-01-13T07:21:44.076Z,53.73
2023-01-13T07:24:12.385Z,52.86
2023-01-13T07:26:42.856Z,52.48
2023-01-13T07:29:11.140Z,50.95
2023-01-13T07:31:41.807Z,49.16
2023-01-13T07:34:10.256Z,51.85
2023-01-13T07:36:39.501Z,52.09
2023-01-13T07:39:09.407Z,51.60
2023-01-13T07:41:54.874Z,52.51
2023-01-13T07:44:26.134Z,53.61
2023-01-13T07:46:54.378Z,52.85
2023-01-13T07:49:25.392Z,51.73
2023-01-13T07:51:53.698Z,51.49
2023-01-13T07:54:39.074Z,50.16
2023-01-13T07:57:08.358Z,52.40
2023-01-13T07:59:37.053Z,51.04
2023-01-13T08:02:05.545Z,48.72
2023-01-13T08:04:35.073Z,48.48
2023-01-13T08:07:03.428Z,49.37
2023-01-13T08:09:33.340Z,49.96
2023-01-13T08:12:15.464Z,51.12
2023-01-13T08:14:43.989Z,52.76
2023-01-13T08:17:12.495Z,53.53
2023-01-13T08:19:40.864Z,52.25
2023-01-13T08:22:09.128Z,51.45
2023-01-13T08:24:38.771Z,50.57
2023-01-13T08:27:07.109Z,48.46
2023-01-13T08:29:35.446Z,48.08
2023-01-13T08:32:03.751Z,47.97
2023-01-13T08:34:32.063Z,49.85
2023-01-13T08:37:00.399Z,48.62
2023-01-13T08:39:28.927Z,47.51
2023-01-13T08:41:58.946Z,46.86
2023-01-13T08:44:28.759Z,45.51
2023-01-13T08:46:57.884Z,46.94
2023-01-13T08:49:26.793Z,45.80
2023-01-13T08:51:55.425Z,44.79
2023-01-13T08:54:23.776Z,44.69
2023-01-13T08:56:52.177Z,44.14
2023-01-13T08:59:22.301Z,44.01
2023-01-13T09:01:50.871Z,43.18
2023-01-13T09:04:23.743Z,40.40
2023-01-13T09:06:53.226Z,40.45
2023-01-13T09:09:21.825Z,39.92
2023-01-13T09:12:09.346Z,39.08
2023-01-13T09:14:40.595Z,38.20
2023-01-13T09:17:09.111Z,38.96
2023-01-13T09:19:38.034Z,38.99
2023-01-13T09:22:06.392Z,37.16
2023-01-13T09:24:34.748Z,36.31
2023-01-13T09:27:03.080Z,37.65
2023-01-13T09:29:31.533Z,37.89
2023-01-13T09:32:01.352Z,36.34
2023-01-13T09:34:47.054Z,36.76
2023-01-13T09:37:15.488Z,34.65
2023-01-13T09:39:43.777Z,35.09
2023-01-13T09:42:37.505Z,35.00
2023-01-13T09:45:09.184Z,34.26
2023-01-13T09:47:43.679Z,35.18
2023-01-13T09:50:23.563Z,34.85
2023-01-13T09:52:52.307Z,35.56
2023-01-13T09:55:26.633Z,35.56
2023-01-13T09:57:55.010Z,34.56
2023-01-13T10:00:25.351Z,35.11
2023-01-13T10:03:10.639Z,35.19
2023-01-13T10:05:42.495Z,35.01
2023-01-13T10:08:14.743Z,34.49
2023-01-13T10:10:47.390Z,35.36
2023-01-13T10:13:21.400Z,34.77
2023-01-13T10:16:03.025Z,35.49
2023-01-13T10:18:44.490Z,36.44
2023-01-13T10:21:27.213Z,35.21
2023-01-13T10:24:03.733Z,35.29
2023-01-13T10:26:48.329Z,35.57
2023-01-13T10:29:25.493Z,34.29
2023-01-13T10:31:54.600Z,34.64
2023-01-13T10:34:25.519Z,34.53
2023-01-13T10:37:06.616Z,34.50
2023-01-13T10:39:42.637Z,34.18
2023-01-13T10:42:15.955Z,34.50
2023-01-13T10:44:52.361Z,33.99
2023-01-13T10:47:28.820Z,33.33
2023-01-13T10:50:26.231Z,34.66
2023-01-13T10:53:00.805Z,35.76
2023-01-13T10:55:32.172Z,36.68
2023-01-13T10:58:13.848Z,36.77
2023-01-13T11:00:42.486Z,36.01
2023-01-13T11:03:17.568Z,36.05
2023-01-13T11:05:55.411Z,36.08
2023-01-13T11:08:26.260Z,35.58
2023-01-13T11:10:57.667Z,36.80
2023-01-13T11:13:33.589Z,35.40
2023-01-13T11:16:06.927Z,33.77
2023-01-13T11:18:52.138Z,35.41
2023-01-13T11:21:25.993Z,35.23
2023-01-13T11:24:06.789Z,35.66
2023-01-13T11:26:45.059Z,35.47
2023-01-13T11:29:19.269Z,32.19
2023-01-13T11:31:52.729Z,32.52
2023-01-13T11:34:29.924Z,31.88
2023-01-13T11:37:02.012Z,31.94
2023-01-13T11:39:42.630Z,31.20
2023-01-13T11:42:24.685Z,30.56
2023-01-13T11:45:03.163Z,30.93
2023-01-13T11:47:33.130Z,30.80
2023-01-13T11:50:02.184Z,30.23
2023-01-13T11:52:49.222Z,30.40
2023-01-13T11:55:32.486Z,30.18
2023-01-13T11:58:29.061Z,31.01
2023-01-13T12:01:10.997Z,31.82
2023-01-13T12:03:44.261Z,31.86
2023-01-13T12:06:28.579Z,33.29
2023-01-13T12:09:26.414Z,32.66
2023-01-13T12:12:27.653Z,33.55
2023-01-13T12:15:29.452Z,35.12
2023-01-13T12:18:20.207Z,36.03
2023-01-13T12:21:01.605Z,35.84
2023-01-13T12:23:35.812Z,36.34
2023-01-13T12:26:11.739Z,35.21
2023-01-13T12:28:46.561Z,34.09
2023-01-13T12:31:17.111Z,34.20
2023-01-13T12:33:56.656Z,36.41
2023-01-13T12:36:32.530Z,36.53
2023-01-13T12:39:10.567Z,36.42
2023-01-13T12:41:59.218Z,35.67
2023-01-13T12:44:27.610Z,35.09
2023-01-13T12:46:57.258Z,36.21
2023-01-13T12:49:28.319Z,36.22
2023-01-13T12:52:19.956Z,38.02
2023-01-13T12:55:19.428Z,38.73
2023-01-13T12:58:01.233Z,39.15
2023-01-13T13:00:38.336Z,37.72
2023-01-13T13:03:37.562Z,37.49
2023-01-13T13:06:11.797Z,37.94
2023-01-13T13:08:54.629Z,37.90
2023-01-13T13:11:53.226Z,38.64
2023-01-13T13:15:04.510Z,38.08
2023-01-13T13:18:01.745Z,38.85
2023-01-13T13:20:56.424Z,39.45
2023-01-13T13:23:44.375Z,38.61
2023-01-13T13:26:25.100Z,38.68
2023-01-13T13:29:28.572Z,39.11
2023-01-13T13:32:15.997Z,40.04
2023-01-13T13:34:53.866Z,40.22
2023-01-13T13:38:05.319Z,40.09
2023-01-13T13:41:02.362Z,40.03
2023-01-13T13:43:56.428Z,39.50
2023-01-13T13:46:44.530Z,40.34
2023-01-13T13:49:13.403Z,41.55
2023-01-13T13:51:49.470Z,41.64
2023-01-13T13:54:21.248Z,41.47
2023-01-13T13:56:51.552Z,40.68
2023-01-13T13:59:22.796Z,41.42
2023-01-13T14:02:01.298Z,41.97
2023-01-13T14:04:31.855Z,42.00
2023-01-13T14:07:04.616Z,42.55
2023-01-13T14:09:42.893Z,42.67
2023-01-13T14:12:19.260Z,43.03
2023-01-13T14:14:49.249Z,43.82
2023-01-13T14:17:23.599Z,44.15
2023-01-13T14:19:58.241Z,44.20
2023-01-13T14:22:27.990Z,45.53
2023-01-13T14:24:57.884Z,45.37
2023-01-13T14:27:28.521Z,45.43
2023-01-13T14:29:59.443Z,45.05
2023-01-13T14:32:33.730Z,44.96
2023-01-13T14:35:02.145Z,45.45
2023-01-13T14:37:36.344Z,45.72
2023-01-13T14:40:05.127Z,46.38
2023-01-13T14:42:35.602Z,47.65
2023-01-13T14:45:04.514Z,48.87
2023-01-13T14:47:34.970Z,48.41
2023-01-13T14:50:07.719Z,48.64
2023-01-13T14:52:47.774Z,49.66
2023-01-13T14:55:26.387Z,49.97
2023-01-13T14:57:55.058Z,49.28
2023-01-13T15:00:26.324Z,49.08
2023-01-13T15:03:08.628Z,49.81
2023-01-13T15:05:42.680Z,50.00
2023-01-13T15:08:38.356Z,50.25
2023-01-13T15:11:08.945Z,49.60
2023-01-13T15:13:50.441Z,49.63
2023-01-13T15:16:25.124Z,49.87
2023-01-13T15:18:54.465Z,50.04
2023-01-13T15:21:23.483Z,49.91
2023-01-13T15:23:53.299Z,50.04
2023-01-13T15:26:24.456Z,50.93
2023-01-13T15:28:53.720Z,50.66
2023-01-13T15:31:22.639Z,50.60
2023-01-13T15:33:52.706Z,51.27
2023-01-13T15:36:27.157Z,52.15
2023-01-13T15:38:57.677Z,52.36
2023-01-13T15:41:43.970Z,51.77
2023-01-13T15:44:30.902Z,51.08
2023-01-13T15:47:02.679Z,51.11
2023-01-13T15:49:36.940Z,52.66
2023-01-13T15:52:07.850Z,53.19
2023-01-13T15:54:37.528Z,52.66
2023-01-13T15:57:05.918Z,51.89
2023-01-13T15:59:34.334Z,52.34
2023-01-13T16:02:02.653Z,53.30
2023-01-13T16:04:30.992Z,53.20
2023-01-13T16:06:59.376Z,54.94
2023-01-13T16:09:27.644Z,54.71
2023-01-13T16:11:57.447Z,54.84
2023-01-13T16:14:25.801Z,54.31
2023-01-13T16:16:54.172Z,55.70
2023-01-13T16:19:22.544Z,56.62
2023-01-13T16:21:51.039Z,55.77
2023-01-13T16:24:19.388Z,55.83
2023-01-13T16:26:47.797Z,55.60
2023-01-13T16:29:17.476Z,56.20
2023-01-13T16:31:45.778Z,57.00
2023-01-13T16:34:14.073Z,59.25
2023-01-13T16:36:43.901Z,59.26
2023-01-13T16:39:22.265Z,59.37
2023-01-13T16:41:50.661Z,59.21
2023-01-13T16:44:20.601Z,60.10
2023-01-13T16:46:48.838Z,60.03
2023-01-13T16:49:18.586Z,59.83
2023-01-13T16:51:46.943Z,60.97
2023-01-13T16:54:16.625Z,61.55
2023-01-13T16:56:45.365Z,61.61
2023-01-13T16:59:17.152Z,61.39
2023-01-13T17:01:46.905Z,60.13
2023-01-13T17:04:17.810Z,59.76
2023-01-13T17:06:53.311Z,60.26
2023-01-13T17:09:24.204Z,59.49
2023-01-13T17:11:52.959Z,59.94
2023-01-13T17:14:23.631Z,58.85
2023-01-13T17:16:55.212Z,59.36
2023-01-13T17:19:24.672Z,60.21
2023-01-13T17:21:53.132Z,59.67
2023-01-13T17:24:21.596Z,60.59
2023-01-13T17:26:51.819Z,59.84
2023-01-13T17:29:22.339Z,60.49
2023-01-13T17:31:54.718Z,62.11
2023-01-13T17:34:23.199Z,62.54
2023-01-13T17:36:51.513Z,63.16
2023-01-13T17:39:22.324Z,64.02
2023-01-13T17:41:51.342Z,64.11
2023-01-13T17:44:21.947Z,63.92
2023-01-13T17:46:50.562Z,64.64
2023-01-13T17:49:22.039Z,65.60
2023-01-13T17:51:51.592Z,65.16
2023-01-13T17:54:20.353Z,64.63
2023-01-13T17:56:48.887Z,64.21
2023-01-13T17:59:19.395Z,64.98
2023-01-13T18:01:47.870Z,65.15
2023-01-13T18:04:17.681Z,65.37
2023-01-13T18:06:48.048Z,65.31
2023-01-13T18:09:16.566Z,65.90
2023-01-13T18:11:47.070Z,64.95
2023-01-13T18:14:15.910Z,65.11
2023-01-13T18:16:44.872Z,63.99
2023-01-13T18:19:30.615Z,62.90
2023-01-13T18:22:17.533Z,62.29
2023-01-13T18:25:03.041Z,62.29
2023-01-13T18:27:33.859Z,62.31
2023-01-13T18:30:03.675Z,62.12
2023-01-13T18:32:33.727Z,62.81
2023-01-13T18:35:06.755Z,62.75
2023-01-13T18:37:38.899Z,62.36
2023-01-13T18:40:09.456Z,62.58
2023-01-13T18:42:51.970Z,63.93
2023-01-13T18:45:20.618Z,64.95
2023-01-13T18:47:48.884Z,64.55
2023-01-13T18:50:18.230Z,63.82
2023-01-13T18:52:48.073Z,64.04
2023-01-13T18:55:16.740Z,64.26
2023-01-13T18:57:45.291Z,64.44
2023-01-13T19:00:16.276Z,64.66
2023-01-13T19:02:45.225Z,64.18
2023-01-13T19:05:13.901Z,64.85
2023-01-13T19:07:43.507Z,65.63
2023-01-13T19:10:14.472Z,64.95
2023-01-13T19:12:43.857Z,64.62
2023-01-13T19:15:12.832Z,65.23
2023-01-13T19:17:41.290Z,65.78
2023-01-13T19:20:11.546Z,65.66
2023-01-13T19:22:39.897Z,65.72
2023-01-13T19:25:08.682Z,65.99
2023-01-13T19:27:39.841Z,66.03
2023-01-13T19:30:09.755Z,67.41
2023-01-13T19:32:38.116Z,67.16
2023-01-13T19:35:07.417Z,67.21
2023-01-13T19:37:37.138Z,67.68
2023-01-13T19:40:09.445Z,67.22
2023-01-13T19:42:56.478Z,67.51
2023-01-13T19:45:27.475Z,67.62
2023-01-13T19:47:56.277Z,66.39
2023-01-13T19:50:25.043Z,66.83
2023-01-13T19:52:53.339Z,67.39
2023-01-13T19:55:22.376Z,67.91
2023-01-13T19:57:52.120Z,67.80
2023-01-13T20:00:22.051Z,68.01
2023-01-13T20:02:52.094Z,68.57
2023-01-13T20:05:22.846Z,68.78
2023-01-13T20:07:51.783Z,69.16
2023-01-13T20:10:21.930Z,69.22
2023-01-13T20:12:51.979Z,68.74
2023-01-13T20:15:20.227Z,68.14
2023-01-13T20:17:48.912Z,68.74
2023-01-13T20:20:18.764Z,68.40
2023-01-13T20:22:47.155Z,68.82
2023-01-13T20:25:17.570Z,68.74
2023-01-13T20:27:46.470Z,68.38
2023-01-13T20:30:16.823Z,68.94
2023-01-13T20:32:45.376Z,68.59
2023-01-13T20:35:14.032Z,68.23
2023-01-13T20:37:43.821Z,68.46
2023-01-13T20:40:16.373Z,68.06
2023-01-13T20:42:45.324Z,68.86
2023-01-13T20:45:20.918Z,69.58
2023-01-13T20:47:49.349Z,69.07
2023-01-13T20:50:17.981Z,69.77
2023-01-13T20:52:46.682Z,69.05
2023-01-13T20:55:15.318Z,69.19
2023-01-13T20:57:43.787Z,68.74
2023-01-13T21:00:16.887Z,69.80
2023-01-13T21:02:45.189Z,69.93
2023-01-13T21:05:13.707Z,69.16
2023-01-13T21:07:41.996Z,68.82
2023-01-13T21:10:11.887Z,69.03
2023-01-13T21:12:57.474Z,68.95
2023-01-13T21:15:27.907Z,69.62
2023-01-13T21:18:13.745Z,70.37
2023-01-13T21:20:42.251Z,69.57
2023-01-13T21:23:12.048Z,69.06
2023-01-13T21:25:40.665Z,69.58
2023-01-13T21:28:11.715Z,69.62
2023-01-13T21:30:42.167Z,68.87
2023-01-13T21:33:14.892Z,69.63
2023-01-13T21:35:43.357Z,70.70
2023-01-13T21:38:12.748Z,70.93
2023-01-13T21:40:41.211Z,71.23
2023-01-13T21:43:30.992Z,70.25
2023-01-13T21:46:18.235Z,70.39
2023-01-13T21:48:46.765Z,70.31
2023-01-13T21:51:15.297Z,69.82
2023-01-13T21:53:43.673Z,70.27
2023-01-13T21:56:12.178Z,71.43
2023-01-13T21:58:40.480Z,69.85
2023-01-13T22:01:11.977Z,68.71
2023-01-13T22:03:54.730Z,69.31
2023-01-13T22:06:23.361Z,69.50
2023-01-13T22:08:51.741Z,70.95
2023-01-13T22:11:20.035Z,70.38
2023-01-13T22:14:05.575Z,71.51
2023-01-13T22:16:37.983Z,73.45
2023-01-13T22:19:07.805Z,74.46
2023-01-13T22:21:36.784Z,77.56
2023-01-13T22:24:05.323Z,78.85
2023-01-13T22:26:33.609Z,81.85
2023-01-13T22:29:02.381Z,86.41
2023-01-13T22:31:31.997Z,91.60
2023-01-13T22:34:01.734Z,92.64
2023-01-13T22:36:29.985Z,90.67
2023-01-13T22:39:00.570Z,87.08
2023-01-13T22:41:29.070Z,83.85
2023-01-13T22:43:57.559Z,83.83
2023-01-13T22:46:25.939Z,82.43
2023-01-13T22:48:56.003Z,81.67
2023-01-13T22:51:26.762Z,81.98
2023-01-13T22:53:55.637Z,83.10
2023-01-13T22:59:13.337Z,81.25
2023-01-13T23:01:42.272Z,81.29
2023-01-13T23:04:13.027Z,80.23
2023-01-13T23:06:42.851Z,80.01
2023-01-13T23:09:11.538Z,80.70
2023-01-13T23:11:40.789Z,80.36
2023-01-13T23:14:10.460Z,79.49
2023-01-13T23:16:40.822Z,79.49
2023-01-13T23:19:09.642Z,78.99
2023-01-13T23:21:39.088Z,78.95
2023-01-13T23:24:09.281Z,79.42
2023-01-13T23:26:38.030Z,79.13
2023-01-13T23:29:09.194Z,78.51
2023-01-13T23:31:37.624Z,77.31
2023-01-13T23:34:05.912Z,75.59
2023-01-13T23:36:37.146Z,76.99
2023-01-13T23:39:05.589Z,76.92
2023-01-13T23:41:35.308Z,78.40
2023-01-13T23:44:03.593Z,78.23
2023-01-13T23:46:34.120Z,78.67
2023-01-13T23:49:03.654Z,79.07
2023-01-13T23:51:32.273Z,78.26
2023-01-13T23:54:01.107Z,78.29
2023-01-13T23:56:31.565Z,78.92
2023-01-13T23:59:01.391Z,79.02
